EST,Max TemperatureF,Mean TemperatureF,Min TemperatureF,Max Dew PointF,MeanDew PointF,Min DewpointF,Max Humidity, Mean Humidity, Min Humidity, Max Sea Level PressureIn, Mean Sea Level PressureIn, Min Sea Level PressureIn, Max VisibilityMiles, Mean VisibilityMiles, Min VisibilityMiles, Max Wind SpeedMPH, Mean Wind SpeedMPH, Max Gust SpeedMPH,PrecipitationIn, CloudCover, Events, WindDirDegrees
2011-11-1,60,45,29,36,33,29,92,66,39,30.38,30.31,30.25,10,10,10,7,2,,0.00,0,,32
2011-11-2,63,47,30,40,36,30,100,70,39,30.45,30.37,30.28,10,10,7,12,2,15,0.00,0,,188
2011-11-3,64,49,34,46,38,34,100,68,36,30.27,30.09,29.94,10,10,5,17,4,21,0.13,1,Rain,191
2011-11-4,58,50,42,48,45,28,100,77,53,30.21,29.92,29.81,10,5,1,23,10,32,0.13,6,Rain,24
2011-11-5,52,41,29,28,25,21,82,56,30,30.49,30.38,30.23,10,10,10,17,6,24,0.00,0,,34
2011-11-6,59,44,28,41,34,27,100,76,51,30.54,30.47,30.42,10,10,10,10,2,13,0.00,1,,26
2011-11-7,68,50,31,44,35,30,100,64,27,30.41,30.38,30.32,10,5,1,8,2,21,0.00,0,,208
2011-11-8,69,51,32,44,37,33,100,64,27,30.32,30.27,30.21,10,10,9,7,1,10,0.00,0,,150
2011-11-9,66,50,34,47,42,35,100,73,45,30.21,30.11,29.99,10,10,10,12,2,14,0.00,0,,175
2011-11-10,59,48,36,48,39,24,100,71,42,29.97,29.90,29.84,10,10,10,13,2,24,0.02,5,Rain,287
2011-11-11,48,38,27,25,22,20,78,56,34,30.16,30.05,29.91,10,10,10,14,5,23,0.00,1,,277
2011-11-12,65,46,26,32,26,22,81,52,22,30.25,30.20,30.15,10,10,10,17,6,26,0.00,0,,206
2011-11-13,62,49,35,44,33,25,82,54,25,30.19,30.13,30.07,10,10,10,21,9,29,0.00,0,,205
2011-11-14,72,59,45,53,49,43,93,69,44,30.07,29.99,29.91,10,10,10,22,9,26,0.00,0,,201
2011-11-15,71,64,56,57,55,52,93,77,61,29.99,29.93,29.89,10,10,6,18,7,21,0.06,6,Rain,211
2011-11-16,67,60,53,64,57,49,100,95,89,29.94,29.81,29.69,10,8,1,17,4,24,0.51,8,Rain-Thunderstorm,92
2011-11-17,53,43,33,50,38,16,100,72,43,30.29,30.01,29.87,10,9,3,16,5,28,0.27,6,Rain,340
2011-11-18,47,34,21,21,15,9,84,53,22,30.53,30.45,30.30,10,10,10,9,2,13,0.00,0,,278
2011-11-19,55,39,23,35,26,17,81,57,32,30.48,30.40,30.33,10,10,10,15,5,22,0.00,1,,190
2011-11-20,71,54,36,57,47,34,100,75,49,30.31,30.25,30.16,10,10,10,13,5,,0.00,1,,204
2011-11-21,73,62,50,58,55,51,100,77,53,30.23,30.19,30.15,10,8,0,8,3,10,T,4,Fog,198
2011-11-22,62,58,54,60,56,54,100,92,84,30.22,30.10,29.83,10,2,0,15,5,18,0.02,8,Fog-Rain,44
2011-11-23,64,53,41,61,50,31,100,72,43,30.16,29.83,29.71,10,8,1,21,8,36,0.77,4,Rain,247
2011-11-24,63,47,30,34,30,26,92,59,25,30.35,30.29,30.18,10,10,10,9,2,13,0.00,0,,244
2011-11-25,70,49,28,36,29,23,92,55,18,30.35,30.29,30.23,10,10,10,10,3,15,0.00,0,,214
2011-11-26,65,48,30,45,34,28,93,61,29,30.32,30.26,30.21,10,10,10,12,4,16,0.00,0,,213
2011-11-27,71,55,39,51,47,40,100,74,47,30.20,30.13,30.06,10,10,10,24,7,30,0.00,3,,197
2011-11-28,69,62,54,59,55,51,97,78,59,30.09,29.99,29.86,10,9,3,18,8,25,0.08,7,Rain,134
2011-11-29,62,49,35,59,45,33,100,80,59,29.82,29.76,29.70,10,8,2,21,10,25,1.28,7,Rain,196
2011-11-30,49,40,31,34,29,25,100,73,46,30.15,29.93,29.78,10,10,10,15,6,25,0.00,3,,251